sensor_id;sensor_type;location;lat;lon;timestamp;pressure;altitude;pressure_sealevel;temperature;humidity
45939;BME280;31650;48.818;9.116;2022-07-22T00:12:49;98325.22;;;17.08;100.00
45939;BME280;31650;48.818;9.116;2022-07-22T00:27:49;98323.44;;;16.96;100.00
45939;BME280;31650;48.818;9.116;2022-07-22T00:42:49;98303.53;;;17.28;100.00
45939;BME280;31650;48.818;9.116;2022-07-22T00:57:50;98300.13;;;16.99;100.00
45939;BME280;31650;48.818;9.116;2022-07-22T01:12:50;98305.56;;;16.77;100.00
45939;BME280;31650;48.818;9.116;2022-07-22T01:27:50;98305.69;;;16.48;100.00
45939;BME280;31650;48.818;9.116;2022-07-22T01:42:51;98314.66;;;16.27;100.00
45939;BME280;31650;48.818;9.116;2022-07-22T01:57:51;98318.19;;;16.10;100.00
45939;BME280;31650;48.818;9.116;2022-07-22T02:12:52;98322.56;;;15.94;100.00
45939;BME280;31650;48.818;9.116;2022-07-22T02:27:52;98323.66;;;15.93;100.00
45939;BME280;31650;48.818;9.116;2022-07-22T02:42:52;98313.94;;;15.86;100.00
45939;BME280;31650;48.818;9.116;2022-07-22T02:57:52;98313.38;;;16.01;100.00
45939;BME280;31650;48.818;9.116;2022-07-22T03:12:53;98318.53;;;15.97;100.00
45939;BME280;31650;48.818;9.116;2022-07-22T03:27:53;98328.88;;;15.66;100.00
45939;BME280;31650;48.818;9.116;2022-07-22T03:42:53;98339.63;;;15.56;100.00
45939;BME280;31650;48.818;9.116;2022-07-22T03:57:53;98332.34;;;15.62;100.00
45939;BME280;31650;48.818;9.116;2022-07-22T04:12:54;98345.69;;;15.70;100.00
45939;BME280;31650;48.818;9.116;2022-07-22T04:27:54;98329.75;;;15.95;100.00
45939;BME280;31650;48.818;9.116;2022-07-22T04:42:54;98304.25;;;16.63;100.00
45939;BME280;31650;48.818;9.116;2022-07-22T04:57:55;98287.28;;;17.04;100.00
45939;BME280;31650;48.818;9.116;2022-07-22T05:12:55;98282.72;;;17.32;100.00
45939;BME280;31650;48.818;9.116;2022-07-22T05:27:55;98269.19;;;17.53;100.00
45939;BME280;31650;48.818;9.116;2022-07-22T05:42:56;98264.41;;;18.62;100.00
45939;BME280;31650;48.818;9.116;2022-07-22T05:57:56;98231.53;;;20.73;100.00
45939;BME280;31650;48.818;9.116;2022-07-22T06:12:56;98232.59;;;22.02;100.00
45939;BME280;31650;48.818;9.116;2022-07-22T06:27:57;98228.66;;;22.96;100.00
45939;BME280;31650;48.818;9.116;2022-07-22T06:42:57;98217.97;;;23.32;100.00
45939;BME280;31650;48.818;9.116;2022-07-22T06:57:57;98218.75;;;25.07;100.00
45939;BME280;31650;48.818;9.116;2022-07-22T07:12:58;98210.94;;;25.23;100.00
45939;BME280;31650;48.818;9.116;2022-07-22T07:27:58;98186.56;;;25.92;100.00
45939;BME280;31650;48.818;9.116;2022-07-22T07:42:58;98176.09;;;26.74;100.00
45939;BME280;31650;48.818;9.116;2022-07-22T07:57:58;98169.25;;;27.38;100.00
45939;BME280;31650;48.818;9.116;2022-07-22T08:12:59;98167.31;;;27.99;100.00
45939;BME280;31650;48.818;9.116;2022-07-22T08:27:59;98165.47;;;28.30;98.82
45939;BME280;31650;48.818;9.116;2022-07-22T08:42:59;98139.72;;;30.14;93.49
45939;BME280;31650;48.818;9.116;2022-07-22T08:58:02;98131.81;;;30.74;76.06
45939;BME280;31650;48.818;9.116;2022-07-22T09:13:04;98129.88;;;30.29;86.40
45939;BME280;31650;48.818;9.116;2022-07-22T09:43:08;98109.22;;;31.45;70.15
45939;BME280;31650;48.818;9.116;2022-07-22T09:58:12;98100.22;;;30.77;76.44
45939;BME280;31650;48.818;9.116;2022-07-22T10:13:13;98065.44;;;31.31;73.74
45939;BME280;31650;48.818;9.116;2022-07-22T10:28:20;98063.31;;;31.53;68.64
45939;BME280;31650;48.818;9.116;2022-07-22T10:43:27;98027.44;;;32.85;65.67
45939;BME280;31650;48.818;9.116;2022-07-22T11:13:38;98003.34;;;34.01;58.57
45939;BME280;31650;48.818;9.116;2022-07-22T11:28:42;98002.66;;;32.91;56.29
45939;BME280;31650;48.818;9.116;2022-07-22T11:43:47;97967.78;;;34.16;58.83
45939;BME280;31650;48.818;9.116;2022-07-22T11:58:48;97937.91;;;33.49;49.39
45939;BME280;31650;48.818;9.116;2022-07-22T12:13:49;97912.50;;;34.95;46.94
45939;BME280;31650;48.818;9.116;2022-07-22T12:28:50;97888.50;;;35.83;41.09
45939;BME280;31650;48.818;9.116;2022-07-22T12:44:26;97887.81;;;35.59;40.28
45939;BME280;31650;48.818;9.116;2022-07-22T12:59:27;97876.16;;;36.57;38.28
45939;BME280;31650;48.818;9.116;2022-07-22T13:14:27;97853.50;;;36.05;40.36
45939;BME280;31650;48.818;9.116;2022-07-22T13:29:27;97838.84;;;36.44;33.99
45939;BME280;31650;48.818;9.116;2022-07-22T13:44:27;97830.16;;;36.12;32.69
45939;BME280;31650;48.818;9.116;2022-07-22T13:59:27;97815.41;;;38.10;31.95
45939;BME280;31650;48.818;9.116;2022-07-22T14:14:29;97812.53;;;38.21;30.53
45939;BME280;31650;48.818;9.116;2022-07-22T14:29:29;97784.59;;;37.59;32.56
45939;BME280;31650;48.818;9.116;2022-07-22T14:44:29;97785.78;;;38.26;29.19
45939;BME280;31650;48.818;9.116;2022-07-22T14:59:29;97765.03;;;38.54;26.96
45939;BME280;31650;48.818;9.116;2022-07-22T15:14:30;97758.63;;;39.16;30.92
45939;BME280;31650;48.818;9.116;2022-07-22T15:29:30;97754.56;;;38.19;29.55
45939;BME280;31650;48.818;9.116;2022-07-22T15:44:30;97752.59;;;37.76;29.73
45939;BME280;31650;48.818;9.116;2022-07-22T15:59:30;97739.16;;;38.12;29.34
45939;BME280;31650;48.818;9.116;2022-07-22T16:14:33;97710.75;;;38.20;30.74
45939;BME280;31650;48.818;9.116;2022-07-22T16:29:33;97706.34;;;36.93;31.51
45939;BME280;31650;48.818;9.116;2022-07-22T16:44:34;97719.22;;;34.92;35.45
45939;BME280;31650;48.818;9.116;2022-07-22T16:59:34;97690.91;;;35.81;34.76
45939;BME280;31650;48.818;9.116;2022-07-22T17:14:35;97689.88;;;35.52;35.58
45939;BME280;31650;48.818;9.116;2022-07-22T17:29:35;97709.25;;;33.74;40.96
45939;BME280;31650;48.818;9.116;2022-07-22T17:44:35;97711.66;;;32.80;47.19
45939;BME280;31650;48.818;9.116;2022-07-22T17:59:36;97751.09;;;31.23;56.38
45939;BME280;31650;48.818;9.116;2022-07-22T18:14:36;97780.94;;;29.90;64.12
45939;BME280;31650;48.818;9.116;2022-07-22T18:29:36;97795.81;;;28.54;76.93
45939;BME280;31650;48.818;9.116;2022-07-22T18:44:37;97816.34;;;27.86;87.21
45939;BME280;31650;48.818;9.116;2022-07-22T18:59:37;97830.66;;;27.46;91.87
45939;BME280;31650;48.818;9.116;2022-07-22T19:14:37;97858.44;;;27.34;94.77
45939;BME280;31650;48.818;9.116;2022-07-22T19:29:37;97859.03;;;26.75;100.00
45939;BME280;31650;48.818;9.116;2022-07-22T19:44:37;97861.44;;;26.33;100.00
45939;BME280;31650;48.818;9.116;2022-07-22T19:59:38;97912.69;;;26.06;100.00
45939;BME280;31650;48.818;9.116;2022-07-22T20:14:38;97918.44;;;25.69;100.00
45939;BME280;31650;48.818;9.116;2022-07-22T20:29:39;97919.69;;;25.32;100.00
45939;BME280;31650;48.818;9.116;2022-07-22T20:44:39;97939.75;;;25.20;100.00
45939;BME280;31650;48.818;9.116;2022-07-22T20:59:39;97907.81;;;24.95;100.00
45939;BME280;31650;48.818;9.116;2022-07-22T21:14:40;97912.00;;;24.70;100.00
45939;BME280;31650;48.818;9.116;2022-07-22T21:29:40;97934.50;;;24.60;100.00
45939;BME280;31650;48.818;9.116;2022-07-22T21:44:40;97910.19;;;24.65;100.00
45939;BME280;31650;48.818;9.116;2022-07-22T21:59:40;97909.25;;;23.18;100.00
45939;BME280;31650;48.818;9.116;2022-07-22T22:14:41;97891.97;;;23.07;100.00
45939;BME280;31650;48.818;9.116;2022-07-22T22:29:41;97888.97;;;22.85;100.00
45939;BME280;31650;48.818;9.116;2022-07-22T22:44:41;97921.75;;;22.64;100.00
45939;BME280;31650;48.818;9.116;2022-07-22T22:59:41;97914.00;;;22.80;100.00
45939;BME280;31650;48.818;9.116;2022-07-22T23:14:44;97909.09;;;23.42;100.00
45939;BME280;31650;48.818;9.116;2022-07-22T23:29:44;97885.94;;;23.93;100.00
45939;BME280;31650;48.818;9.116;2022-07-22T23:44:45;97866.22;;;24.31;100.00
45939;BME280;31650;48.818;9.116;2022-07-22T23:59:46;97856.22;;;24.44;100.00
